KPGA/PGA METAR and TAF weather

Enter ICAO airport designator
Station Type Date Time Source
KPGA METAR 2020/02/16 19:53 UTC NOAA

KPGA 161953Z AUTO 04006KT 10SM CLR 13/M08 A3001 RMK AO2 SLP139 T01281078 TSNO


Station Type Date Time Source
KPGA Decoded METAR 2020/02/16 19:53 UTC NOAA

PAGE MUNICIPAL AIRPORT, AZ, United States (KPGA) 36-56N 111-27W 1307M
Feb 16, 2020 - 02:53 PM EST / 2020.02.16 1953 UTC
Wind: from the NE (040 degrees) at 7 MPH (6 KT):0
Visibility: 10 mile(s):0
Sky conditions: clear
Temperature: 55.0 F (12.8 C)
Dew Point: 18.0 F (-7.8 C)
Relative Humidity: 23%
Pressure (altimeter): 30.01 in. Hg (1016 hPa)
ob: KPGA 161953Z AUTO 04006KT 10SM CLR 13/M08 A3001 RMK AO2 SLP139 T01281078 TSNO
cycle: 20

Station Type Date Time Source
KPGA TAF 2020/02/16 18:22 UTC NOAA

TAF KPGA 161720Z 1618/1718 VRB05KT P6SM SCT200
FM162100 28010G18KT P6SM SCT200
FM170200 28006KT P6SM FEW200

Example: see airport list